Time;durP1;ratioP1;P1;durP2;ratioP2;P2;SDS_P1;SDS_P2;PMS_P1;PMS_P2;Temp;Humidity;BMP_temperature;BMP_pressure;BME280_temperature;BME280_humidity;BME280_pressure;Samples;Min_cycle;Max_cycle;Signal;HPM_P1;HPM_P2
2024/01/08 00:00:11;;;;;;;1.93;1.50;;;18.20;41.60;;;;;;5055773;28;20248;-1
2024/01/08 00:02:37;;;;;;;1.80;1.60;;;18.20;41.40;;;;;;5054940;28;20173;-1
2024/01/08 00:05:25;;;;;;;2.10;1.50;;;18.20;41.30;;;;;;5058142;28;20249;-1
2024/01/08 00:07:50;;;;;;;2.13;1.60;;;18.20;41.30;;;;;;5058823;28;20162;-1
2024/01/08 00:10:16;;;;;;;1.70;1.40;;;18.10;41.30;;;;;;5058413;28;20677;-1
2024/01/08 00:12:42;;;;;;;1.53;1.43;;;18.20;41.30;;;;;;5058053;28;20170;-1
2024/01/08 00:15:10;;;;;;;1.63;1.50;;;18.20;41.30;;;;;;5057941;28;20186;-1
2024/01/08 00:17:35;;;;;;;1.40;1.30;;;18.20;41.20;;;;;;5074196;28;20188;-1
2024/01/08 00:20:04;;;;;;;1.93;1.40;;;18.20;41.30;;;;;;5041780;28;20298;-1
2024/01/08 00:22:30;;;;;;;1.60;1.47;;;18.20;41.20;;;;;;5041308;28;20172;-1
2024/01/08 00:24:57;;;;;;;1.50;1.40;;;18.20;41.20;;;;;;5058586;28;20218;-1
2024/01/08 00:27:22;;;;;;;1.60;1.40;;;18.20;41.20;;;;;;5058095;28;20192;-1
2024/01/08 00:29:49;;;;;;;1.87;1.50;;;18.20;41.10;;;;;;5040582;28;20182;-1
2024/01/08 00:32:14;;;;;;;1.57;1.40;;;18.20;41.60;;;;;;5040455;28;20193;-1
2024/01/08 00:34:52;;;;;;;1.97;1.40;;;18.20;41.10;;;;;;5041015;28;20514;-1
2024/01/08 00:37:17;;;;;;;2.07;1.50;;;18.20;41.10;;;;;;5040803;28;20173;-3
2024/01/08 00:39:43;;;;;;;1.40;1.30;;;18.00;41.20;;;;;;5040495;28;20179;-1
2024/01/08 00:42:09;;;;;;;1.50;1.40;;;17.80;41.30;;;;;;5040078;28;20250;-1
2024/01/08 00:44:46;;;;;;;2.07;1.53;;;17.70;41.50;;;;;;5074202;28;20253;-1
2024/01/08 00:47:12;;;;;;;1.53;1.33;;;17.70;41.70;;;;;;5058067;28;20177;-1
2024/01/08 00:49:38;;;;;;;1.43;1.33;;;17.60;41.70;;;;;;5074203;28;20196;-1
2024/01/08 00:52:04;;;;;;;1.40;1.30;;;17.70;41.60;;;;;;5056985;28;20202;-1
2024/01/08 00:54:41;;;;;;;1.47;1.30;;;17.70;41.50;;;;;;5057282;28;20182;-1
2024/01/08 00:57:06;;;;;;;1.50;1.40;;;17.60;41.30;;;;;;5040760;28;20357;-1
2024/01/08 00:59:32;;;;;;;1.70;1.60;;;17.70;41.30;;;;;;5057527;28;20568;-1
2024/01/08 01:01:58;;;;;;;1.70;1.40;;;17.60;41.20;;;;;;5066821;23;20219;-1
2024/01/08 01:04:24;;;;;;;2.40;1.60;;;17.50;41.30;;;;;;5034901;28;20178;-1
2024/01/08 01:06:49;;;;;;;1.70;1.50;;;17.50;41.30;;;;;;5035734;28;20165;-1
2024/01/08 01:09:16;;;;;;;1.53;1.43;;;17.60;41.30;;;;;;5034718;28;20538;-1
2024/01/08 01:11:42;;;;;;;1.30;1.20;;;17.50;41.30;;;;;;5034759;28;20216;-1
2024/01/08 01:14:07;;;;;;;1.90;1.50;;;17.60;41.60;;;;;;5036251;28;20174;-1
2024/01/08 01:16:33;;;;;;;1.70;1.47;;;17.60;41.10;;;;;;5035368;28;20262;-1
2024/01/08 01:19:00;;;;;;;2.23;1.40;;;17.60;41.10;;;;;;5034796;28;20442;-1
2024/01/08 01:21:27;;;;;;;1.73;1.53;;;17.60;40.90;;;;;;5034676;28;20216;-1
2024/01/08 01:23:54;;;;;;;2.00;1.50;;;17.50;40.80;;;;;;5034238;28;20266;-1
2024/01/08 01:26:20;;;;;;;1.53;1.43;;;17.60;41.00;;;;;;5033484;28;20178;-1
2024/01/08 01:28:46;;;;;;;2.27;1.50;;;17.60;40.90;;;;;;5033549;28;20466;-1
2024/01/08 01:31:12;;;;;;;1.57;1.33;;;17.70;40.90;;;;;;5033079;28;20217;-1
2024/01/08 01:33:39;;;;;;;1.93;1.40;;;17.70;40.80;;;;;;5033644;28;20208;-1
2024/01/08 01:36:06;;;;;;;1.70;1.40;;;17.60;40.80;;;;;;5033503;28;20555;-1
2024/01/08 01:38:32;;;;;;;2.10;1.50;;;17.60;40.90;;;;;;5033988;28;20600;-1
2024/01/08 01:40:58;;;;;;;1.50;1.40;;;17.70;40.80;;;;;;5033623;28;20177;-1
2024/01/08 01:43:25;;;;;;;2.00;1.40;;;17.90;40.70;;;;;;5034678;28;20180;-1
2024/01/08 01:45:54;;;;;;;1.60;1.50;;;18.00;40.60;;;;;;5038275;28;20202;-1
2024/01/08 01:48:22;;;;;;;1.50;1.40;;;18.00;40.60;;;;;;5038081;28;20469;-1
2024/01/08 01:50:48;;;;;;;1.50;1.40;;;18.10;40.60;;;;;;5038881;28;20250;-1
2024/01/08 01:53:13;;;;;;;1.63;1.40;;;18.10;40.50;;;;;;5038410;28;20214;-1
2024/01/08 01:55:41;;;;;;;1.50;1.40;;;18.10;40.60;;;;;;5037934;28;20188;-1
2024/01/08 01:58:08;;;;;;;1.60;1.50;;;18.20;40.60;;;;;;5039446;28;20174;-1
2024/01/08 02:00:34;;;;;;;1.30;1.20;;;18.20;40.50;;;;;;5038158;28;20182;-1
2024/01/08 02:03:01;;;;;;;1.63;1.43;;;18.20;40.40;;;;;;5038518;28;20186;-1
2024/01/08 02:05:27;;;;;;;1.80;1.57;;;18.20;40.40;;;;;;5038762;28;20169;-1
2024/01/08 02:07:53;;;;;;;1.60;1.50;;;18.20;40.40;;;;;;5039156;28;20188;-1
2024/01/08 02:10:19;;;;;;;2.00;1.50;;;18.20;40.40;;;;;;5037290;28;20177;-1
2024/01/08 02:12:45;;;;;;;1.40;1.30;;;18.20;40.50;;;;;;5038359;28;20173;-2
2024/01/08 02:15:11;;;;;;;1.47;1.30;;;18.30;40.40;;;;;;5037234;28;20233;-1
2024/01/08 02:17:38;;;;;;;1.47;1.30;;;18.30;40.30;;;;;;5036299;28;20175;-1
2024/01/08 02:20:07;;;;;;;1.20;1.10;;;18.30;40.40;;;;;;5036720;28;20216;-1
2024/01/08 02:22:43;;;;;;;1.73;1.43;;;18.20;40.40;;;;;;5037317;28;20429;-1
2024/01/08 02:25:09;;;;;;;1.60;1.50;;;18.30;40.50;;;;;;5036216;28;20181;-1
2024/01/08 02:27:36;;;;;;;1.43;1.33;;;18.30;40.40;;;;;;5036837;28;20297;-1
2024/01/08 02:30:02;;;;;;;2.07;1.50;;;18.30;40.50;;;;;;5035784;28;20185;-1
2024/01/08 02:32:27;;;;;;;1.63;1.40;;;18.30;40.90;;;;;;5036722;28;20202;-1
2024/01/08 02:34:53;;;;;;;1.30;1.20;;;18.40;40.40;;;;;;5036198;28;20173;-1
2024/01/08 02:37:19;;;;;;;1.50;1.40;;;18.30;40.40;;;;;;5037570;28;20438;-1
2024/01/08 02:39:45;;;;;;;1.30;1.20;;;18.30;40.50;;;;;;5036696;28;20197;-1
2024/01/08 02:42:13;;;;;;;2.00;1.50;;;18.20;40.60;;;;;;5035767;28;20497;-1
2024/01/08 02:44:40;;;;;;;1.53;1.40;;;18.30;40.60;;;;;;5037475;28;20165;-1
2024/01/08 02:47:05;;;;;;;1.40;1.30;;;18.30;40.70;;;;;;5036046;28;20295;-1
2024/01/08 02:49:31;;;;;;;1.47;1.30;;;18.40;40.60;;;;;;5037120;28;20296;-1
2024/01/08 02:51:57;;;;;;;1.43;1.30;;;18.40;40.60;;;;;;5037139;28;20211;-1
2024/01/08 02:54:22;;;;;;;2.13;1.33;;;18.40;40.60;;;;;;5037844;28;20577;-1
2024/01/08 02:56:50;;;;;;;1.40;1.30;;;18.40;40.50;;;;;;5036474;28;20175;-1
2024/01/08 02:59:16;;;;;;;1.37;1.27;;;18.40;40.60;;;;;;5037002;28;20175;-1
2024/01/08 03:01:42;;;;;;;1.60;1.50;;;18.30;40.50;;;;;;5037665;28;20191;-1
2024/01/08 03:04:08;;;;;;;1.93;1.50;;;18.40;40.50;;;;;;5037938;28;20178;-1
2024/01/08 03:06:34;;;;;;;1.53;1.30;;;18.40;40.60;;;;;;5037258;28;20568;-1
2024/01/08 03:09:00;;;;;;;1.67;1.57;;;18.40;40.50;;;;;;5038387;28;20168;-1
2024/01/08 03:11:25;;;;;;;1.50;1.30;;;18.40;40.60;;;;;;5037818;28;20214;-1
2024/01/08 03:13:51;;;;;;;2.53;1.30;;;18.30;40.70;;;;;;5037540;28;20418;-2
2024/01/08 03:16:20;;;;;;;1.50;1.40;;;18.40;40.70;;;;;;5036379;28;20184;-2
2024/01/08 03:18:46;;;;;;;1.30;1.20;;;18.40;40.70;;;;;;5036430;28;20186;-2
2024/01/08 03:21:12;;;;;;;1.50;1.40;;;18.30;40.80;;;;;;5036668;28;20165;-2
2024/01/08 03:23:38;;;;;;;1.67;1.40;;;18.40;40.80;;;;;;5033816;28;20200;-2
2024/01/08 03:26:05;;;;;;;1.63;1.53;;;18.30;40.80;;;;;;5034153;28;20550;-2
2024/01/08 03:28:30;;;;;;;1.53;1.40;;;18.20;40.90;;;;;;5034404;28;20234;-2
2024/01/08 03:30:56;;;;;;;1.70;1.53;;;18.40;40.90;;;;;;5034341;28;20202;-2
2024/01/08 03:33:22;;;;;;;1.63;1.40;;;18.40;40.80;;;;;;5034333;28;20181;-2
2024/01/08 03:35:48;;;;;;;1.53;1.43;;;18.40;40.80;;;;;;5035519;28;20204;-2
2024/01/08 03:38:14;;;;;;;1.50;1.40;;;18.40;40.80;;;;;;5035886;28;20178;-2
2024/01/08 03:40:39;;;;;;;1.63;1.53;;;18.40;40.80;;;;;;5036614;28;20179;-2
2024/01/08 03:43:05;;;;;;;1.93;1.53;;;18.50;40.80;;;;;;5034641;28;20178;-2
2024/01/08 03:45:31;;;;;;;1.70;1.50;;;18.50;40.80;;;;;;5035007;28;20268;-2
2024/01/08 03:47:57;;;;;;;1.60;1.50;;;18.40;40.70;;;;;;5035475;28;20179;-2
2024/01/08 03:50:22;;;;;;;2.00;1.60;;;18.40;40.90;;;;;;5034998;28;20179;-2
2024/01/08 03:52:48;;;;;;;1.50;1.40;;;18.40;40.90;;;;;;5035075;28;20173;-2
2024/01/08 03:55:14;;;;;;;1.80;1.50;;;18.30;40.90;;;;;;5035448;28;20186;-2
2024/01/08 03:57:40;;;;;;;1.90;1.40;;;18.30;41.00;;;;;;5035187;28;20226;-2
2024/01/08 04:00:06;;;;;;;1.20;1.10;;;18.40;41.00;;;;;;5036215;28;20194;-2
2024/01/08 04:02:33;;;;;;;1.87;1.50;;;18.30;41.20;;;;;;5035314;28;20192;-2
2024/01/08 04:04:59;;;;;;;1.50;1.30;;;18.30;41.00;;;;;;5036335;28;20186;-2
2024/01/08 04:07:24;;;;;;;1.97;1.70;;;18.20;41.10;;;;;;5035584;28;20177;-2
2024/01/08 04:09:50;;;;;;;2.03;1.60;;;17.90;41.30;;;;;;5035864;28;20178;-2
2024/01/08 04:12:16;;;;;;;1.60;1.50;;;17.60;41.60;;;;;;5036603;28;20221;-2
2024/01/08 04:14:42;;;;;;;1.60;1.50;;;17.30;41.90;;;;;;5034372;28;20188;-2
2024/01/08 04:17:07;;;;;;;1.60;1.50;;;17.00;42.20;;;;;;5033310;28;20174;-2
2024/01/08 04:19:33;;;;;;;2.17;1.60;;;16.70;42.50;;;;;;5034543;28;20227;-2
2024/01/08 04:21:59;;;;;;;1.87;1.60;;;16.50;42.80;;;;;;5033914;28;20175;-2
2024/01/08 04:24:25;;;;;;;1.57;1.47;;;16.30;43.00;;;;;;5031975;28;20174;-2
2024/01/08 04:26:51;;;;;;;1.50;1.40;;;16.10;43.30;;;;;;5033781;28;20179;-2
2024/01/08 04:29:17;;;;;;;2.03;1.70;;;16.80;43.20;;;;;;5032037;28;20227;-2
2024/01/08 04:31:42;;;;;;;1.50;1.40;;;18.40;41.80;;;;;;5033405;28;20265;-2
2024/01/08 04:34:09;;;;;;;1.50;1.40;;;19.00;40.70;;;;;;5033411;28;20176;-2
2024/01/08 04:36:40;;;;;;;1.87;1.57;;;19.40;40.10;;;;;;5034954;28;20162;-2
2024/01/08 04:39:06;;;;;;;1.60;1.50;;;19.80;39.80;;;;;;5034722;28;20170;-2
2024/01/08 04:41:32;;;;;;;1.73;1.57;;;20.20;39.40;;;;;;5034900;28;20244;-2
2024/01/08 04:43:58;;;;;;;1.67;1.57;;;20.20;39.30;;;;;;5035184;28;20179;-2
2024/01/08 04:46:24;;;;;;;2.07;1.73;;;20.20;39.20;;;;;;5035858;28;20587;-2
2024/01/08 04:48:49;;;;;;;1.47;1.37;;;20.30;39.20;;;;;;5035878;28;20183;-2
2024/01/08 04:51:25;;;;;;;1.70;1.60;;;20.50;39.00;;;;;;5035267;28;20246;-2
2024/01/08 04:53:52;;;;;;;1.77;1.67;;;20.60;39.00;;;;;;5034126;28;20171;-2
2024/01/08 04:56:21;;;;;;;2.00;1.80;;;20.30;39.00;;;;;;5033038;28;20238;-2
2024/01/08 04:58:47;;;;;;;1.83;1.70;;;20.20;39.10;;;;;;5032325;28;20181;-2
2024/01/08 05:01:13;;;;;;;1.93;1.73;;;19.90;39.30;;;;;;5031383;28;20203;-2
2024/01/08 05:03:38;;;;;;;1.70;1.50;;;19.60;39.60;;;;;;5032759;28;20175;-2
2024/01/08 05:06:04;;;;;;;1.70;1.60;;;19.30;39.90;;;;;;5033309;28;20165;-2
2024/01/08 05:08:30;;;;;;;2.53;1.63;;;18.90;40.20;;;;;;5034652;28;20279;-2
2024/01/08 05:10:55;;;;;;;1.90;1.73;;;18.50;40.60;;;;;;5033521;28;20206;-2
2024/01/08 05:13:21;;;;;;;2.53;1.97;;;18.10;40.90;;;;;;5034000;28;20176;-2
2024/01/08 05:15:47;;;;;;;1.80;1.70;;;17.70;41.30;;;;;;5033414;28;20176;-2
2024/01/08 05:18:12;;;;;;;1.60;1.50;;;17.30;41.70;;;;;;5032263;28;20237;-2
2024/01/08 05:20:38;;;;;;;1.80;1.60;;;17.10;42.00;;;;;;5033327;28;20180;-2
2024/01/08 05:23:04;;;;;;;1.63;1.47;;;16.70;42.20;;;;;;5032961;28;20240;-2
2024/01/08 05:25:31;;;;;;;2.03;1.83;;;16.40;42.50;;;;;;5032319;28;20252;-2
2024/01/08 05:27:57;;;;;;;2.37;1.90;;;16.20;42.80;;;;;;5031639;28;20161;-2
2024/01/08 05:30:23;;;;;;;2.10;1.90;;;16.20;42.90;;;;;;5029909;28;20365;-2
2024/01/08 05:32:50;;;;;;;1.60;1.50;;;16.40;42.90;;;;;;5030193;28;20191;-2
2024/01/08 05:35:16;;;;;;;2.83;1.90;;;16.80;42.50;;;;;;5029406;28;20165;-2
2024/01/08 05:37:42;;;;;;;2.33;1.70;;;17.50;41.90;;;;;;5029422;28;20171;-2
2024/01/08 05:40:08;;;;;;;2.00;1.80;;;18.40;41.10;;;;;;5031907;28;20182;-2
2024/01/08 05:42:34;;;;;;;1.67;1.50;;;19.10;40.30;;;;;;5031714;28;20170;-2
2024/01/08 05:44:59;;;;;;;2.20;1.97;;;19.40;39.80;;;;;;5031442;28;20250;-2
2024/01/08 05:47:25;;;;;;;1.77;1.60;;;19.60;39.60;;;;;;5030493;28;20260;-2
2024/01/08 05:49:51;;;;;;;2.23;1.90;;;19.80;39.40;;;;;;5030254;28;20200;-2
2024/01/08 05:52:17;;;;;;;2.10;1.93;;;19.90;39.20;;;;;;5030358;28;20226;-2
2024/01/08 05:54:42;;;;;;;1.83;1.60;;;20.00;39.00;;;;;;5029856;28;20171;-2
2024/01/08 05:57:09;;;;;;;2.30;1.90;;;20.00;39.00;;;;;;5029729;28;20435;-2
2024/01/08 05:59:34;;;;;;;2.10;1.73;;;20.00;39.00;;;;;;5028502;28;20167;-2
2024/01/08 06:02:00;;;;;;;2.20;2.00;;;19.90;38.90;;;;;;5028672;28;20443;-2
2024/01/08 06:04:26;;;;;;;2.07;1.87;;;19.70;39.00;;;;;;5027132;28;20399;-2
2024/01/08 06:06:52;;;;;;;2.20;1.80;;;19.50;39.30;;;;;;5028178;28;20177;-2
2024/01/08 06:09:18;;;;;;;2.50;1.90;;;19.30;39.50;;;;;;5028893;28;20211;-2
2024/01/08 06:11:44;;;;;;;2.07;1.87;;;19.00;39.80;;;;;;5028003;28;20227;-2
2024/01/08 06:14:10;;;;;;;2.20;1.83;;;18.60;40.10;;;;;;5029267;28;20453;-2
2024/01/08 06:16:36;;;;;;;3.70;1.90;;;18.20;40.40;;;;;;5029568;28;20199;-2
2024/01/08 06:19:04;;;;;;;1.70;1.60;;;17.90;40.80;;;;;;5028668;28;20728;-2
2024/01/08 06:21:30;;;;;;;2.30;2.10;;;17.60;41.10;;;;;;5023791;28;20517;-2
2024/01/08 06:23:56;;;;;;;3.20;2.00;;;17.20;41.40;;;;;;5027715;28;20548;-2
2024/01/08 06:26:22;;;;;;;2.03;1.83;;;17.00;41.90;;;;;;5030776;28;20177;-2
2024/01/08 06:28:47;;;;;;;3.03;2.00;;;16.80;42.10;;;;;;5028282;28;20182;-2
2024/01/08 06:31:13;;;;;;;2.43;2.07;;;16.70;42.20;;;;;;5031339;28;20446;-2
2024/01/08 06:33:39;;;;;;;1.97;1.87;;;17.00;42.10;;;;;;5032562;28;20242;-2
2024/01/08 06:36:05;;;;;;;2.27;2.07;;;17.50;41.60;;;;;;5033216;28;20417;-2
2024/01/08 06:38:30;;;;;;;2.80;2.00;;;18.00;41.10;;;;;;5030321;28;20218;-2
2024/01/08 06:40:56;;;;;;;3.53;2.30;;;18.50;40.60;;;;;;5039635;28;20267;-2
2024/01/08 06:43:22;;;;;;;2.13;1.93;;;19.00;40.10;;;;;;5038373;28;20170;-2
2024/01/08 06:45:49;;;;;;;2.20;2.00;;;19.50;39.70;;;;;;5031383;28;20363;-2
2024/01/08 06:48:14;;;;;;;2.10;1.90;;;19.80;39.40;;;;;;5028176;28;20631;-2
2024/01/08 06:50:40;;;;;;;2.13;1.93;;;20.00;39.10;;;;;;5029336;28;20272;-2
2024/01/08 06:53:06;;;;;;;2.07;1.87;;;20.10;38.90;;;;;;5037340;28;20218;-2
2024/01/08 06:55:31;;;;;;;2.47;2.20;;;20.10;38.80;;;;;;5037310;28;20162;-2
2024/01/08 06:58:00;;;;;;;2.20;2.00;;;20.20;38.70;;;;;;5036194;28;20259;-2
2024/01/08 07:00:27;;;;;;;2.60;2.27;;;20.10;38.80;;;;;;5037690;28;20352;-2
2024/01/08 07:02:52;;;;;;;2.43;2.20;;;19.80;38.90;;;;;;5037162;28;20169;-2
2024/01/08 07:05:18;;;;;;;2.50;2.20;;;19.50;39.10;;;;;;5037689;28;20464;-2
2024/01/08 07:07:52;;;;;;;3.27;2.40;;;19.20;39.60;;;;;;5035697;28;20266;-2
2024/01/08 07:10:18;;;;;;;2.30;2.10;;;18.90;39.80;;;;;;5037329;28;20164;-2
2024/01/08 07:12:44;;;;;;;2.60;2.10;;;18.50;40.10;;;;;;5038254;28;20261;-2
2024/01/08 07:15:40;;;;;;;2.37;2.00;;;18.10;40.30;;;;;;5038900;28;20245;-2
2024/01/08 07:18:10;;;;;;;2.93;2.50;;;17.70;40.60;;;;;;5033158;28;20211;-2
2024/01/08 07:20:37;;;;;;;3.03;2.50;;;17.40;40.70;;;;;;5037456;28;20171;-2
2024/01/08 07:23:10;;;;;;;2.40;2.20;;;17.10;40.90;;;;;;5037623;28;20176;-2
2024/01/08 07:25:37;;;;;;;2.23;2.03;;;16.90;41.20;;;;;;5038450;28;20166;-2
2024/01/08 07:28:06;;;;;;;2.67;2.10;;;16.70;41.30;;;;;;5037673;28;20171;-2
2024/01/08 07:30:32;;;;;;;3.60;2.20;;;16.80;41.40;;;;;;5037439;28;20219;-2
2024/01/08 07:33:05;;;;;;;2.70;2.40;;;16.80;41.30;;;;;;5036718;28;20171;-2
2024/01/08 07:35:30;;;;;;;2.83;2.30;;;17.00;41.30;;;;;;5037971;28;20263;-2
2024/01/08 07:37:56;;;;;;;2.80;2.30;;;16.80;41.40;;;;;;5036765;28;20274;-2
2024/01/08 07:40:25;;;;;;;3.37;2.40;;;16.60;41.60;;;;;;5036484;28;20767;-2
2024/01/08 07:42:57;;;;;;;2.53;2.20;;;16.40;42.00;;;;;;5035883;28;20173;-2
2024/01/08 07:45:25;;;;;;;2.43;2.20;;;16.10;42.40;;;;;;5036544;28;20731;-2
2024/01/08 07:47:51;;;;;;;2.87;1.90;;;16.40;42.50;;;;;;5036987;28;20184;-2
2024/01/08 07:50:17;;;;;;;2.83;2.53;;;17.50;41.80;;;;;;5038099;28;20464;-2
2024/01/08 07:52:43;;;;;;;3.40;2.40;;;18.70;40.70;;;;;;5036538;28;20205;-2
2024/01/08 07:55:09;;;;;;;2.80;2.07;;;19.20;39.90;;;;;;5037372;28;20168;-2
2024/01/08 07:57:35;;;;;;;4.00;2.47;;;19.30;39.60;;;;;;5036793;28;20255;-2
2024/01/08 08:00:06;;;;;;;2.37;2.17;;;19.20;39.60;;;;;;5037592;28;20164;-2
2024/01/08 08:02:36;;;;;;;3.03;2.23;;;19.40;39.40;;;;;;5036269;28;20584;-2
2024/01/08 08:05:02;;;;;;;3.30;2.37;;;19.60;39.50;;;;;;5037375;28;20199;-2
2024/01/08 08:07:28;;;;;;;5.10;2.50;;;19.70;39.30;;;;;;5035835;28;20183;-3
2024/01/08 08:09:54;;;;;;;2.43;2.07;;;19.60;39.40;;;;;;5035829;28;20185;-2
2024/01/08 08:12:20;;;;;;;2.23;2.00;;;19.80;39.30;;;;;;5036147;28;20430;-2
2024/01/08 08:14:49;;;;;;;3.40;1.87;;;19.70;39.20;;;;;;5035853;28;20208;-2
2024/01/08 08:17:21;;;;;;;3.10;2.10;;;19.70;39.20;;;;;;5035238;28;20168;-2
2024/01/08 08:19:47;;;;;;;2.70;2.50;;;19.70;39.20;;;;;;5035235;28;20414;-2
2024/01/08 08:22:14;;;;;;;2.33;2.00;;;19.70;39.30;;;;;;5036210;28;20161;-2
2024/01/08 08:24:40;;;;;;;3.10;2.30;;;19.50;39.50;;;;;;5035775;28;20165;-2
2024/01/08 08:27:11;;;;;;;2.27;2.07;;;19.20;39.70;;;;;;5033914;28;20186;-2
2024/01/08 08:29:46;;;;;;;2.87;2.30;;;19.00;40.00;;;;;;5035652;28;20171;-2
2024/01/08 08:32:12;;;;;;;2.63;2.30;;;18.60;40.20;;;;;;5034633;28;20495;-2
2024/01/08 08:34:39;;;;;;;2.83;2.40;;;18.30;40.50;;;;;;5035609;28;20218;-2
2024/01/08 08:37:09;;;;;;;3.17;2.50;;;18.00;40.70;;;;;;5035677;28;20175;-2
2024/01/08 08:39:36;;;;;;;3.80;2.43;;;17.60;41.10;;;;;;5035612;28;20223;-2
2024/01/08 08:42:14;;;;;;;4.07;2.40;;;17.30;41.40;;;;;;5035473;28;20186;-2
2024/01/08 08:44:40;;;;;;;3.53;2.47;;;17.00;41.60;;;;;;5033775;28;20278;-2
2024/01/08 08:47:06;;;;;;;3.00;2.07;;;16.80;41.80;;;;;;5032674;28;20281;-2
2024/01/08 08:49:32;;;;;;;2.60;2.37;;;16.70;42.00;;;;;;5035053;28;20208;-2
2024/01/08 08:51:59;;;;;;;2.53;2.07;;;16.80;42.10;;;;;;5034152;28;20552;-2
2024/01/08 08:54:24;;;;;;;3.40;2.20;;;17.00;42.10;;;;;;5034294;28;20819;-2
2024/01/08 08:56:50;;;;;;;3.47;1.90;;;17.30;41.80;;;;;;5034379;28;20270;-2
2024/01/08 08:59:19;;;;;;;3.37;2.37;;;17.70;41.30;;;;;;5034597;28;20171;-2
2024/01/08 09:01:49;;;;;;;2.30;2.10;;;18.10;40.80;;;;;;5034014;28;20198;-2
2024/01/08 09:04:15;;;;;;;3.33;2.40;;;18.50;40.30;;;;;;5033325;28;20224;-2
2024/01/08 09:06:40;;;;;;;3.23;2.07;;;18.90;39.90;;;;;;5034597;28;20181;-2
2024/01/08 09:09:09;;;;;;;5.57;2.07;;;19.10;39.50;;;;;;5033386;28;20536;-2
2024/01/08 09:11:35;;;;;;;3.70;2.07;;;19.20;39.30;;;;;;5033491;28;20206;-2
2024/01/08 09:14:01;;;;;;;2.50;2.23;;;19.20;39.10;;;;;;5033767;28;20169;-2
2024/01/08 09:16:27;;;;;;;3.07;1.87;;;19.40;39.10;;;;;;5033982;28;20171;-2
2024/01/08 09:18:53;;;;;;;2.97;2.20;;;19.30;38.80;;;;;;5036240;28;20185;-2
2024/01/08 09:21:19;;;;;;;2.27;2.00;;;19.20;38.70;;;;;;5035521;28;20172;-2
2024/01/08 09:23:45;;;;;;;4.20;2.20;;;19.30;38.60;;;;;;5034725;28;20184;-2
2024/01/08 09:26:11;;;;;;;3.20;2.17;;;19.30;38.60;;;;;;5035080;28;20221;-2
2024/01/08 09:28:36;;;;;;;3.87;2.13;;;19.10;38.40;;;;;;5035221;28;20290;-2
2024/01/08 09:31:03;;;;;;;2.00;1.77;;;18.90;38.30;;;;;;5035776;28;20281;-2
2024/01/08 09:33:30;;;;;;;2.80;2.10;;;18.80;38.20;;;;;;5032970;28;20293;-2
2024/01/08 09:35:56;;;;;;;2.67;2.20;;;18.70;38.30;;;;;;5016764;28;20198;-2
2024/01/08 09:38:22;;;;;;;2.27;2.07;;;18.60;38.30;;;;;;5014569;28;20179;-2
2024/01/08 09:40:48;;;;;;;2.50;2.13;;;18.60;38.30;;;;;;5019796;28;20236;-2
2024/01/08 09:43:15;;;;;;;3.57;2.30;;;18.40;38.30;;;;;;5027889;28;20196;-2
2024/01/08 09:46:07;;;;;;;2.80;2.00;;;18.40;38.40;;;;;;5033282;28;20195;-2
2024/01/08 09:48:34;;;;;;;2.50;2.20;;;18.30;38.30;;;;;;5053470;28;20263;-2
2024/01/08 09:51:00;;;;;;;2.67;2.20;;;18.00;38.40;;;;;;5053076;28;20204;-3
2024/01/08 09:53:31;;;;;;;2.40;2.20;;;18.00;38.40;;;;;;5054564;28;20229;-2
2024/01/08 09:55:57;;;;;;;2.37;2.13;;;17.90;38.30;;;;;;5054466;28;20169;-2
2024/01/08 09:58:26;;;;;;;2.30;2.10;;;18.10;38.20;;;;;;5044348;28;20201;-2
2024/01/08 10:00:53;;;;;;;2.10;1.90;;;18.20;38.20;;;;;;5033430;28;20193;-2
2024/01/08 10:03:19;;;;;;;2.37;2.00;;;18.30;37.70;;;;;;5035376;28;20569;-2
2024/01/08 10:05:44;;;;;;;2.80;2.13;;;18.60;37.40;;;;;;5036231;28;20188;-2
2024/01/08 10:08:17;;;;;;;2.40;2.00;;;18.90;37.00;;;;;;5038105;28;20603;-2
2024/01/08 10:10:43;;;;;;;4.23;2.20;;;19.30;36.60;;;;;;5039004;28;20251;-2
2024/01/08 10:13:10;;;;;;;2.37;2.17;;;19.30;36.40;;;;;;5038672;28;20185;-3
2024/01/08 10:15:36;;;;;;;2.20;2.00;;;19.50;36.40;;;;;;5039367;28;20192;-3
2024/01/08 10:18:17;;;;;;;2.33;2.10;;;19.70;36.30;;;;;;5037898;28;20172;-2
2024/01/08 10:20:44;;;;;;;2.47;1.90;;;19.90;36.50;;;;;;5037904;28;20180;-3
2024/01/08 10:23:16;;;;;;;2.47;2.00;;;19.90;36.50;;;;;;5037917;28;20268;-3
2024/01/08 10:25:50;;;;;;;2.40;2.00;;;19.90;36.50;;;;;;5037605;28;20331;-2
2024/01/08 10:28:20;;;;;;;2.57;2.27;;;19.80;36.50;;;;;;5038456;28;20556;-3
2024/01/08 10:30:46;;;;;;;2.20;2.00;;;19.90;36.50;;;;;;5038403;28;20169;-2
2024/01/08 10:33:12;;;;;;;2.60;2.00;;;20.10;36.40;;;;;;5039620;28;20577;-2
2024/01/08 10:35:40;;;;;;;2.43;2.20;;;20.00;36.40;;;;;;5038672;28;20268;-2
2024/01/08 10:38:07;;;;;;;2.30;2.10;;;19.90;36.80;;;;;;5039037;28;20169;-3
2024/01/08 10:40:33;;;;;;;2.60;2.37;;;19.90;36.40;;;;;;5020738;28;20177;-2
2024/01/08 10:42:59;;;;;;;2.67;2.43;;;19.60;36.40;;;;;;5038935;28;20216;-2
2024/01/08 10:45:24;;;;;;;2.20;2.00;;;19.50;36.20;;;;;;5037764;28;20263;-3
2024/01/08 10:48:04;;;;;;;2.50;2.20;;;19.40;36.20;;;;;;5027910;28;20196;-3
2024/01/08 10:50:32;;;;;;;2.47;2.10;;;19.30;36.20;;;;;;5036275;28;20185;-2
2024/01/08 10:52:58;;;;;;;2.73;2.20;;;19.10;36.10;;;;;;5036694;28;20223;-3
2024/01/08 10:55:24;;;;;;;3.17;2.43;;;18.90;36.30;;;;;;5038544;28;20165;-2
2024/01/08 10:57:59;;;;;;;3.00;2.27;;;18.80;36.20;;;;;;5037296;28;20176;-2
2024/01/08 11:00:26;;;;;;;2.83;2.37;;;18.70;36.30;;;;;;5038272;28;20189;-3
2024/01/08 11:02:52;;;;;;;2.80;2.60;;;18.60;36.20;;;;;;5038104;28;20187;-2
2024/01/08 11:05:21;;;;;;;2.27;2.07;;;18.40;36.30;;;;;;5038012;28;20270;-2
2024/01/08 11:07:50;;;;;;;2.43;2.23;;;18.40;36.20;;;;;;5036972;28;20282;-2
2024/01/08 11:10:16;;;;;;;2.47;2.27;;;18.30;36.30;;;;;;5035720;28;20176;-2
2024/01/08 11:12:52;;;;;;;2.77;2.37;;;18.40;36.30;;;;;;5035924;28;20230;-3
2024/01/08 11:15:17;;;;;;;2.50;2.17;;;18.50;36.10;;;;;;5037626;28;20256;-2
2024/01/08 11:17:53;;;;;;;2.40;2.20;;;18.70;36.00;;;;;;5037267;28;20235;-2
2024/01/08 11:20:34;;;;;;;2.70;2.20;;;18.70;35.60;;;;;;5037111;28;20180;-2
2024/01/08 11:23:04;;;;;;;2.57;2.33;;;19.00;35.60;;;;;;5037267;28;20271;-2
2024/01/08 11:25:30;;;;;;;2.63;2.43;;;19.20;35.40;;;;;;5037303;28;20173;-2
2024/01/08 11:27:58;;;;;;;3.07;2.30;;;18.90;35.00;;;;;;5038392;28;20619;-2
2024/01/08 11:30:24;;;;;;;2.63;2.20;;;19.20;34.90;;;;;;5038046;28;20169;-2
2024/01/08 11:33:00;;;;;;;2.77;2.43;;;19.30;34.80;;;;;;5036543;28;20302;-2
2024/01/08 11:35:29;;;;;;;2.50;2.30;;;19.40;34.70;;;;;;5036852;28;20149;-2
2024/01/08 11:38:17;;;;;;;3.07;2.40;;;19.50;34.70;;;;;;5036597;28;20238;-2
2024/01/08 11:40:44;;;;;;;2.73;2.30;;;19.50;34.60;;;;;;5026294;28;20543;-2
2024/01/08 11:43:11;;;;;;;2.57;2.33;;;19.50;34.70;;;;;;5036522;28;20199;-2
2024/01/08 11:45:36;;;;;;;2.40;2.20;;;19.60;34.60;;;;;;5035386;28;20176;-2
2024/01/08 11:48:02;;;;;;;2.67;2.30;;;19.50;34.70;;;;;;5036190;28;20161;-3
2024/01/08 11:50:29;;;;;;;2.23;2.03;;;19.20;34.80;;;;;;5035724;28;20692;-2
2024/01/08 11:53:00;;;;;;;2.60;2.30;;;19.10;34.90;;;;;;5036167;28;20354;-3
2024/01/08 11:55:27;;;;;;;2.80;2.20;;;19.00;35.00;;;;;;5035556;28;20180;-2
2024/01/08 11:57:53;;;;;;;2.50;2.30;;;19.10;34.80;;;;;;5037029;28;20164;-3
2024/01/08 12:00:22;;;;;;;2.80;2.50;;;19.00;34.80;;;;;;5036938;28;20275;-2
2024/01/08 12:02:48;;;;;;;2.50;2.30;;;19.00;34.80;;;;;;5036776;28;20186;-2
2024/01/08 12:05:14;;;;;;;2.67;2.47;;;19.00;34.80;;;;;;5036249;28;20275;-2
2024/01/08 12:07:39;;;;;;;2.97;2.33;;;19.10;34.80;;;;;;5035284;28;20181;-2
2024/01/08 12:10:07;;;;;;;3.33;2.60;;;19.00;34.70;;;;;;5035028;28;20192;-2
2024/01/08 12:12:34;;;;;;;2.80;2.30;;;19.10;34.90;;;;;;5035195;28;20215;-2
2024/01/08 12:15:00;;;;;;;3.00;2.40;;;19.10;34.60;;;;;;5036356;28;20526;-2
2024/01/08 12:17:25;;;;;;;2.87;2.30;;;19.10;34.40;;;;;;5034972;28;20191;-2
2024/01/08 12:19:53;;;;;;;2.70;2.30;;;19.00;34.50;;;;;;5033259;28;20532;-2
2024/01/08 12:22:20;;;;;;;2.63;2.10;;;19.00;34.50;;;;;;5034701;28;20209;-3
2024/01/08 12:24:51;;;;;;;3.43;2.60;;;18.90;34.50;;;;;;5034943;28;20234;-3
2024/01/08 12:27:19;;;;;;;2.43;2.23;;;19.00;34.60;;;;;;5034911;28;20187;-2
2024/01/08 12:29:46;;;;;;;2.77;2.17;;;18.90;34.70;;;;;;5034384;28;20176;-2
2024/01/08 12:32:18;;;;;;;2.70;2.40;;;18.90;34.70;;;;;;5034962;28;20551;-2
2024/01/08 12:34:43;;;;;;;2.43;2.23;;;18.80;34.70;;;;;;5035602;28;20156;-2
2024/01/08 12:37:11;;;;;;;2.50;2.30;;;18.80;34.80;;;;;;5035153;28;20658;-2
2024/01/08 12:39:40;;;;;;;2.70;2.23;;;18.90;34.60;;;;;;5034991;28;20209;-3
2024/01/08 12:42:10;;;;;;;2.60;2.10;;;18.90;34.60;;;;;;5035234;28;20186;-2
2024/01/08 12:44:37;;;;;;;2.80;2.30;;;18.80;34.60;;;;;;5035136;28;20179;-2
2024/01/08 12:47:04;;;;;;;2.40;2.20;;;18.80;35.10;;;;;;5034522;28;20206;-2
2024/01/08 12:49:32;;;;;;;3.23;2.50;;;18.80;34.50;;;;;;5034531;28;20233;-3
2024/01/08 12:52:00;;;;;;;3.00;2.30;;;19.10;34.40;;;;;;5033007;28;20784;-3
2024/01/08 12:54:29;;;;;;;3.20;2.40;;;19.00;34.30;;;;;;5034764;28;20184;-2
2024/01/08 12:56:55;;;;;;;3.07;2.27;;;19.00;34.30;;;;;;5029609;28;20186;-2